Time;durP1;ratioP1;P1;durP2;ratioP2;P2;SDS_P1;SDS_P2;PMS_P1;PMS_P2;Temp;Humidity;BMP_temperature;BMP_pressure;BME280_temperature;BME280_humidity;BME280_pressure;Samples;Min_cycle;Max_cycle;Signal;HPM_P1;HPM_P2
2022/06/19 00:02:10;;;;;;;11.73;2.58;;;;;;;16.60;71.27;100869.81;4898623;29;20071;-87
2022/06/19 00:04:36;;;;;;;13.40;3.28;;;;;;;16.63;71.23;100883.44;4898612;29;20028;-81
2022/06/19 00:07:01;;;;;;;16.73;3.08;;;;;;;16.57;71.38;100885.75;4899142;29;20102;-88
2022/06/19 00:09:26;;;;;;;11.45;2.80;;;;;;;16.52;70.97;100877.50;4899820;29;20107;-86
2022/06/19 00:11:54;;;;;;;11.10;2.80;;;;;;;16.34;71.08;100846.88;4900183;29;20028;-85
2022/06/19 00:14:20;;;;;;;10.98;2.45;;;;;;;16.42;71.01;100861.84;4900572;29;20024;-79
2022/06/19 00:16:45;;;;;;;11.52;2.90;;;;;;;16.36;71.19;100862.38;4899995;29;20108;-83
2022/06/19 00:19:10;;;;;;;14.35;3.33;;;;;;;16.32;70.97;100861.81;4881977;29;20044;-88
2022/06/19 00:21:36;;;;;;;11.18;2.78;;;;;;;16.29;71.34;100869.88;4898896;29;20032;-88
2022/06/19 00:24:02;;;;;;;15.85;3.55;;;;;;;16.29;70.99;100875.09;4898807;29;20085;-79
2022/06/19 00:26:27;;;;;;;16.52;3.13;;;;;;;16.21;70.79;100869.72;4898387;29;20088;-88
2022/06/19 00:28:53;;;;;;;15.38;3.00;;;;;;;16.10;70.38;100869.81;4899600;29;20096;-87
2022/06/19 00:31:24;;;;;;;16.15;3.33;;;;;;;16.11;70.86;100884.50;4899441;29;20084;-79
2022/06/19 00:33:49;;;;;;;11.88;3.08;;;;;;;16.02;69.80;100891.31;4898599;29;20032;-83
2022/06/19 00:36:15;;;;;;;14.20;3.53;;;;;;;15.90;69.02;100892.34;4898222;29;20075;-80
2022/06/19 00:38:40;;;;;;;15.68;3.22;;;;;;;15.93;69.05;100897.31;4898224;29;20029;-87
2022/06/19 00:41:05;;;;;;;13.40;3.28;;;;;;;15.72;69.09;100858.25;4898163;29;20477;-86
2022/06/19 00:43:31;;;;;;;13.82;2.72;;;;;;;15.61;68.66;100841.91;4898383;29;20429;-80
2022/06/19 00:46:23;;;;;;;12.82;2.80;;;;;;;15.68;68.75;100863.88;4897936;29;20104;-87
2022/06/19 00:48:49;;;;;;;16.10;2.95;;;;;;;15.67;68.56;100888.25;4898339;29;20036;-86
2022/06/19 00:51:18;;;;;;;12.52;3.25;;;;;;;15.27;68.33;100846.47;4898604;29;20028;-80
2022/06/19 00:53:47;;;;;;;11.98;2.60;;;;;;;15.51;67.72;100880.84;4898149;29;20034;-88
2022/06/19 00:56:18;;;;;;;13.77;3.05;;;;;;;15.54;67.51;100885.81;4898125;29;20053;-87
2022/06/19 00:58:45;;;;;;;15.80;2.95;;;;;;;15.13;67.29;100811.16;4897679;29;20091;-87
2022/06/19 01:01:14;;;;;;;15.18;3.15;;;;;;;15.48;67.17;100892.34;4897814;29;20039;-88
2022/06/19 01:04:01;;;;;;;11.48;2.75;;;;;;;15.48;67.20;100883.72;4897816;29;20450;-79
2022/06/19 01:06:27;;;;;;;16.13;3.88;;;;;;;15.43;66.69;100878.88;4897305;29;20104;-87
2022/06/19 01:08:53;;;;;;;13.18;3.00;;;;;;;15.15;66.77;100828.31;4898032;29;20024;-85
2022/06/19 01:11:21;;;;;;;14.70;3.25;;;;;;;15.42;66.75;100876.41;4898134;29;20556;-87
2022/06/19 01:13:50;;;;;;;14.48;3.30;;;;;;;15.43;66.87;100888.44;4897889;29;20385;-80
2022/06/19 01:16:16;;;;;;;13.00;2.75;;;;;;;15.16;67.04;100857.75;4897501;29;20449;-80
2022/06/19 01:18:42;;;;;;;15.35;3.35;;;;;;;15.44;66.83;100997.66;4897663;29;20111;-83
2022/06/19 01:21:21;;;;;;;14.05;2.92;;;;;;;15.41;67.17;101078.56;4897755;29;20103;-87
2022/06/19 01:24:24;;;;;;;17.55;3.17;;;;;;;15.43;65.91;101042.81;4898237;29;20060;-80
2022/06/19 01:26:52;;;;;;;14.23;2.53;;;;;;;15.33;65.66;100956.03;4898045;29;20397;-85
2022/06/19 01:29:19;;;;;;;18.67;3.13;;;;;;;14.88;65.20;100919.78;4897622;29;20470;-86
2022/06/19 01:31:51;;;;;;;15.30;3.20;;;;;;;15.07;65.30;101015.38;4897926;29;20044;-80
2022/06/19 01:34:35;;;;;;;16.95;3.20;;;;;;;14.99;64.85;101019.50;4897591;29;20116;-87
2022/06/19 01:37:24;;;;;;;12.00;2.80;;;;;;;14.70;63.97;100923.00;4897385;29;20029;-87
2022/06/19 01:39:55;;;;;;;17.75;3.28;;;;;;;14.77;63.74;100976.16;4897053;29;20397;-84
2022/06/19 01:42:21;;;;;;;16.70;3.20;;;;;;;14.68;64.37;101008.91;4897729;29;20065;-81
2022/06/19 01:44:48;;;;;;;13.02;2.83;;;;;;;14.40;64.71;100976.38;4898383;29;20041;-89
2022/06/19 01:47:15;;;;;;;19.42;3.50;;;;;;;14.54;64.35;100996.13;4897745;29;20065;-88
2022/06/19 01:49:45;;;;;;;13.57;2.95;;;;;;;14.32;63.90;100968.34;4904829;23;20056;-86
2022/06/19 01:52:10;;;;;;;11.65;2.55;;;;;;;14.51;63.89;101010.19;4898302;29;20033;-89
2022/06/19 01:54:42;;;;;;;12.88;2.78;;;;;;;14.42;63.38;100974.47;4897466;29;20029;-79
2022/06/19 01:57:10;;;;;;;12.65;3.00;;;;;;;14.43;63.31;100994.31;4897402;29;20111;-81
2022/06/19 01:59:39;;;;;;;11.63;2.58;;;;;;;14.35;62.92;101000.13;4897888;29;20065;-88
2022/06/19 02:02:06;;;;;;;17.10;2.70;;;;;;;14.18;62.41;100976.38;4897495;29;20053;-87
2022/06/19 02:04:32;;;;;;;13.45;2.90;;;;;;;14.32;60.77;101005.53;4897396;29;20033;-85
2022/06/19 02:07:02;;;;;;;11.80;2.88;;;;;;;14.29;60.99;101010.97;4897167;29;20397;-85
2022/06/19 02:09:27;;;;;;;17.50;2.90;;;;;;;13.92;60.73;100947.16;4897090;29;20108;-87
2022/06/19 02:11:54;;;;;;;11.88;2.38;;;;;;;14.28;60.59;101008.50;4897635;29;20437;-79
2022/06/19 02:14:20;;;;;;;13.50;2.42;;;;;;;14.27;60.50;101023.25;4897795;29;20102;-80
2022/06/19 02:16:50;;;;;;;9.77;2.65;;;;;;;14.28;60.20;101014.50;4898072;29;20120;-81
2022/06/19 02:19:18;;;;;;;16.67;2.72;;;;;;;14.07;60.27;100961.59;4900473;29;20021;-85
2022/06/19 02:21:47;;;;;;;15.70;3.53;;;;;;;14.32;61.69;101002.09;4900522;29;20067;-88
2022/06/19 02:24:16;;;;;;;12.88;2.13;;;;;;;14.23;60.63;100995.00;4900653;29;20039;-79
2022/06/19 02:26:43;;;;;;;11.55;2.28;;;;;;;14.11;60.22;100978.59;4885049;29;20025;-88
2022/06/19 02:29:12;;;;;;;13.68;2.47;;;;;;;14.15;59.69;100976.56;4884087;29;20029;-86
2022/06/19 02:31:40;;;;;;;12.50;2.85;;;;;;;14.26;59.64;101002.59;4901084;29;20036;-89
2022/06/19 02:34:12;;;;;;;12.93;2.50;;;;;;;14.27;58.56;101017.22;4900579;29;20388;-88
2022/06/19 02:36:43;;;;;;;15.00;3.10;;;;;;;14.25;58.41;101025.13;4900639;29;20107;-88
2022/06/19 02:39:21;;;;;;;11.73;2.33;;;;;;;14.30;58.30;101020.41;4901307;29;20036;-88
2022/06/19 02:42:00;;;;;;;10.35;2.30;;;;;;;14.13;57.56;100992.28;4901027;29;20032;-87
2022/06/19 02:44:40;;;;;;;12.40;2.28;;;;;;;14.34;57.71;101015.81;4900712;29;20040;-87
2022/06/19 02:47:08;;;;;;;11.25;1.90;;;;;;;14.30;57.11;101006.59;4900682;29;20033;-86
2022/06/19 02:49:34;;;;;;;18.15;2.75;;;;;;;14.41;57.65;101010.97;4900242;29;20100;-88
2022/06/19 02:52:01;;;;;;;12.75;2.45;;;;;;;14.14;58.53;100960.16;4900828;29;20028;-86
2022/06/19 02:54:27;;;;;;;10.45;1.90;;;;;;;14.26;58.10;100974.03;4900195;29;20542;-88
2022/06/19 02:56:52;;;;;;;12.48;2.03;;;;;;;14.34;59.01;101002.81;4899718;29;20029;-87
2022/06/19 02:59:20;;;;;;;12.55;2.65;;;;;;;14.29;58.54;101021.34;4900143;29;20028;-84
2022/06/19 03:01:45;;;;;;;13.00;2.35;;;;;;;14.23;58.84;101072.94;4899986;29;20385;-79
2022/06/19 03:04:21;;;;;;;14.35;2.95;;;;;;;13.99;58.94;101102.38;4906595;23;20052;-85
2022/06/19 03:06:46;;;;;;;14.23;2.38;;;;;;;14.28;58.71;101135.78;4882714;29;20108;-84
2022/06/19 03:09:12;;;;;;;11.55;2.40;;;;;;;14.11;58.71;101066.06;4900186;29;20032;-86
2022/06/19 03:11:38;;;;;;;8.60;1.50;;;;;;;14.23;57.75;101068.56;4899914;29;20189;-86
2022/06/19 03:14:03;;;;;;;11.00;2.13;;;;;;;14.17;57.53;101042.25;4899961;29;20549;-85
2022/06/19 03:16:28;;;;;;;11.63;1.83;;;;;;;13.82;57.91;101008.50;4899395;29;20029;-80
2022/06/19 03:18:54;;;;;;;11.60;1.90;;;;;;;14.03;56.97;101036.28;4882424;29;20037;-86
2022/06/19 03:21:19;;;;;;;9.07;1.55;;;;;;;14.07;56.95;101035.13;4882728;29;20469;-86
2022/06/19 03:23:45;;;;;;;9.88;1.52;;;;;;;13.96;56.85;100998.75;4899590;29;20028;-87
2022/06/19 03:26:10;;;;;;;8.45;1.88;;;;;;;13.86;56.61;100973.56;4899600;29;20575;-88
2022/06/19 03:28:36;;;;;;;10.85;2.22;;;;;;;13.98;56.40;101009.03;4905449;23;20143;-86
2022/06/19 03:31:01;;;;;;;10.55;1.52;;;;;;;13.96;56.73;101029.91;4899628;29;20035;-85
2022/06/19 03:33:27;;;;;;;9.70;1.73;;;;;;;13.64;57.07;100998.50;4899847;29;20032;-85
2022/06/19 03:36:00;;;;;;;8.95;1.35;;;;;;;13.94;56.73;101031.75;4899829;29;20025;-80
2022/06/19 03:38:25;;;;;;;7.72;1.33;;;;;;;13.88;56.45;100995.91;4899732;29;20369;-85
2022/06/19 03:40:55;;;;;;;8.88;1.30;;;;;;;13.91;56.37;100981.84;4900023;29;20028;-85
2022/06/19 03:43:20;;;;;;;12.02;1.80;;;;;;;13.89;56.84;100968.16;4882634;29;20063;-88
2022/06/19 03:45:45;;;;;;;6.85;1.30;;;;;;;13.86;56.78;100976.16;4899204;29;20054;-80
2022/06/19 03:48:12;;;;;;;7.18;1.45;;;;;;;13.53;56.06;100880.88;4899260;29;20056;-83
2022/06/19 03:50:39;;;;;;;13.30;1.30;;;;;;;13.88;55.59;100937.97;4882292;29;20027;-88
2022/06/19 03:53:05;;;;;;;8.20;1.20;;;;;;;13.61;55.40;100941.66;4899232;29;20116;-88
2022/06/19 03:55:30;;;;;;;8.13;1.92;;;;;;;13.93;54.11;101048.28;4899170;29;20463;-84
2022/06/19 03:57:55;;;;;;;12.95;1.67;;;;;;;13.98;54.59;101085.16;4899025;29;20032;-84
2022/06/19 04:00:21;;;;;;;8.02;1.65;;;;;;;14.05;54.90;101044.78;4899184;29;20035;-82
2022/06/19 04:02:46;;;;;;;7.07;1.27;;;;;;;14.06;54.69;101020.50;4898762;29;20036;-80
2022/06/19 04:05:12;;;;;;;4.57;1.13;;;;;;;14.20;54.24;101027.25;4898712;29;20424;-88
2022/06/19 04:07:45;;;;;;;6.97;1.33;;;;;;;14.28;53.77;100991.13;4899117;29;20148;-88
2022/06/19 04:10:12;;;;;;;10.35;1.55;;;;;;;14.13;53.45;100939.50;4882051;29;20036;-86
2022/06/19 04:12:37;;;;;;;8.60;1.63;;;;;;;14.23;53.46;100956.88;4898500;29;20540;-82
2022/06/19 04:15:04;;;;;;;9.15;1.52;;;;;;;14.05;54.12;100916.72;4898520;29;20112;-85
2022/06/19 04:17:32;;;;;;;8.75;1.35;;;;;;;13.90;54.54;100853.81;4898392;29;20096;-87
2022/06/19 04:19:58;;;;;;;9.73;1.50;;;;;;;14.24;54.84;100874.59;4898664;29;20036;-86
2022/06/19 04:22:23;;;;;;;9.50;1.80;;;;;;;14.41;55.24;100865.47;4898913;29;20032;-85
2022/06/19 04:24:48;;;;;;;10.55;2.40;;;;;;;14.66;55.15;100847.06;4881800;29;20033;-85
2022/06/19 04:27:17;;;;;;;9.93;1.88;;;;;;;14.82;54.77;100810.22;4881296;29;20036;-86
2022/06/19 04:29:42;;;;;;;10.20;2.25;;;;;;;15.05;55.00;100818.78;4898191;29;20048;-85
2022/06/19 04:32:07;;;;;;;11.88;1.80;;;;;;;15.29;54.57;100808.13;4898207;29;20031;-86
2022/06/19 04:34:33;;;;;;;6.93;1.52;;;;;;;15.36;54.18;100781.47;4898066;29;20051;-86
2022/06/19 04:37:01;;;;;;;14.23;1.63;;;;;;;15.63;53.11;100774.91;4881592;29;20068;-80
2022/06/19 04:39:26;;;;;;;11.30;2.35;;;;;;;16.19;52.71;100829.94;4897926;29;20041;-83
2022/06/19 04:41:52;;;;;;;11.18;2.15;;;;;;;16.25;52.52;100826.00;4897500;29;20024;-85
2022/06/19 04:44:18;;;;;;;12.35;1.52;;;;;;;16.12;52.37;100813.19;4898372;29;20140;-80
2022/06/19 04:46:45;;;;;;;12.98;2.22;;;;;;;16.20;52.73;100815.13;4898016;29;20091;-86
2022/06/19 04:49:11;;;;;;;9.25;1.92;;;;;;;16.21;52.79;100798.53;4899490;29;20035;-86
2022/06/19 04:51:37;;;;;;;11.23;1.98;;;;;;;16.27;52.48;100783.22;4898034;29;20087;-86
2022/06/19 04:54:03;;;;;;;8.23;1.50;;;;;;;16.15;52.55;100724.38;4898129;29;20474;-79
2022/06/19 04:56:28;;;;;;;10.30;2.00;;;;;;;16.42;52.75;100741.97;4897925;29;20036;-86
2022/06/19 04:58:54;;;;;;;13.35;1.80;;;;;;;16.44;53.00;100768.72;4897976;29;20028;-82
2022/06/19 05:01:25;;;;;;;12.60;1.88;;;;;;;16.65;52.28;100734.69;4898239;29;20037;-80
2022/06/19 05:03:52;;;;;;;;;;;;;;;17.32;51.62;100792.97;4899063;29;20028;-87
2022/06/19 05:06:17;;;;;;;9.18;1.48;;;;;;;17.35;50.34;100803.94;4898208;29;19915;-86
2022/06/19 05:08:42;;;;;;;7.70;2.00;;;;;;;17.54;50.77;100797.88;4897765;29;20029;-87
2022/06/19 05:11:09;;;;;;;9.68;2.08;;;;;;;17.94;49.71;100830.75;4897893;29;20043;-88
2022/06/19 05:13:35;;;;;;;11.18;1.80;;;;;;;17.97;48.42;100788.63;4897749;29;20029;-84
2022/06/19 05:16:03;;;;;;;8.25;1.70;;;;;;;18.11;48.26;100816.91;4897859;29;20043;-87
2022/06/19 05:18:32;;;;;;;10.35;2.08;;;;;;;18.32;49.53;100842.78;4897446;29;20120;-85
2022/06/19 05:21:01;;;;;;;9.20;2.38;;;;;;;18.42;50.38;100829.66;5062088;23;20056;-83
2022/06/19 05:23:49;;;;;;;5.53;1.30;;;;;;;18.58;46.73;100753.97;4949546;23;20517;-83
2022/06/19 05:26:21;;;;;;;12.25;2.20;;;;;;;19.87;44.59;100851.97;4897676;29;20040;-80
2022/06/19 05:28:48;;;;;;;10.65;2.28;;;;;;;20.37;44.19;100869.56;4880814;29;20040;-80
2022/06/19 05:31:14;;;;;;;8.07;1.60;;;;;;;20.57;43.28;100887.53;4897608;29;20108;-80
2022/06/19 05:33:39;;;;;;;7.32;1.60;;;;;;;20.54;44.38;100931.59;4880805;29;20389;-80
2022/06/19 05:36:05;;;;;;;9.20;2.15;;;;;;;20.84;48.25;100954.69;4897302;29;20048;-79
2022/06/19 05:38:30;;;;;;;9.13;1.95;;;;;;;20.73;43.32;100912.97;4897551;29;20406;-80
2022/06/19 05:40:58;;;;;;;10.00;2.22;;;;;;;21.37;43.83;100981.56;4897743;29;20036;-80
2022/06/19 05:43:28;;;;;;;8.77;1.92;;;;;;;21.71;44.21;100950.66;4897525;29;20033;-80
2022/06/19 05:45:59;;;;;;;6.55;1.55;;;;;;;22.95;39.16;100979.09;4897632;29;20029;-80
2022/06/19 05:48:25;;;;;;;8.75;1.63;;;;;;;23.67;37.62;100958.47;4897658;29;20033;-80
2022/06/19 05:51:03;;;;;;;9.35;2.05;;;;;;;23.32;40.35;100965.19;4880744;29;20027;-79
2022/06/19 05:53:31;;;;;;;10.00;2.17;;;;;;;23.51;42.85;100971.78;4883910;29;20064;-80
2022/06/19 05:55:57;;;;;;;10.30;2.13;;;;;;;22.84;39.03;100940.81;4901274;29;20029;-80
2022/06/19 05:58:23;;;;;;;10.23;2.20;;;;;;;22.14;42.02;100992.53;4901228;29;20055;-76
2022/06/19 06:00:49;;;;;;;10.52;1.88;;;;;;;21.22;42.45;100970.81;4901422;29;20437;-78
2022/06/19 06:03:19;;;;;;;10.88;1.90;;;;;;;20.30;44.94;100977.72;4901139;29;20111;-86
2022/06/19 06:05:47;;;;;;;13.82;2.03;;;;;;;19.63;45.68;101015.91;4900962;29;20033;-79
2022/06/19 06:08:14;;;;;;;8.68;1.75;;;;;;;18.90;46.23;100949.72;4884097;29;20104;-79
2022/06/19 06:10:40;;;;;;;8.55;1.60;;;;;;;19.20;47.66;101050.66;4900982;29;20024;-79
2022/06/19 06:13:06;;;;;;;10.45;2.00;;;;;;;19.10;49.61;101032.38;4901116;29;20495;-79
2022/06/19 06:15:31;;;;;;;9.05;2.13;;;;;;;19.54;49.97;101045.59;4901099;29;20111;-81
2022/06/19 06:18:01;;;;;;;8.82;1.85;;;;;;;19.65;47.60;101053.25;4898360;29;20064;-81
2022/06/19 06:20:27;;;;;;;9.35;1.83;;;;;;;20.26;48.61;101033.25;4865484;29;20067;-83
2022/06/19 06:22:53;;;;;;;10.38;2.25;;;;;;;20.33;44.24;101050.00;4865205;29;20085;-81
2022/06/19 06:25:18;;;;;;;11.98;1.98;;;;;;;19.97;47.56;101054.53;4881688;29;20057;-81
2022/06/19 06:27:44;;;;;;;11.32;2.10;;;;;;;19.94;49.23;101115.09;4881971;29;20037;-81
2022/06/19 06:30:14;;;;;;;7.10;1.55;;;;;;;19.67;46.20;101135.16;4865401;29;20535;-82
2022/06/19 06:32:40;;;;;;;11.10;2.03;;;;;;;19.32;49.22;101159.44;4880573;29;20543;-81
2022/06/19 06:35:06;;;;;;;14.48;2.28;;;;;;;18.92;50.43;101130.97;4865354;29;20033;-82
2022/06/19 06:37:31;;;;;;;8.98;1.70;;;;;;;18.85;47.70;101156.88;4864579;29;20045;-81
2022/06/19 06:39:57;;;;;;;7.28;1.30;;;;;;;18.60;50.08;101160.91;4865406;29;20088;-81
2022/06/19 06:42:22;;;;;;;7.88;1.60;;;;;;;18.26;50.60;101167.53;4865100;29;20173;-80
2022/06/19 06:44:48;;;;;;;11.15;2.20;;;;;;;18.28;52.65;101241.41;4865337;29;20053;-81
2022/06/19 06:47:13;;;;;;;10.32;2.13;;;;;;;18.23;50.77;101281.03;4864475;29;20096;-82
2022/06/19 06:49:41;;;;;;;15.05;2.00;;;;;;;18.04;51.23;101250.47;4864975;29;20036;-81
2022/06/19 06:52:08;;;;;;;6.90;2.13;;;;;;;17.82;53.70;101266.38;4864819;29;20021;-81
2022/06/19 06:54:38;;;;;;;8.10;1.80;;;;;;;17.71;54.23;101269.91;4881638;29;20033;-81
2022/06/19 06:57:05;;;;;;;10.43;1.63;;;;;;;17.45;55.61;101266.88;4881414;29;20060;-80
2022/06/19 06:59:32;;;;;;;10.00;1.60;;;;;;;17.23;54.95;101277.47;4881499;29;20032;-83
2022/06/19 07:01:58;;;;;;;7.85;1.90;;;;;;;17.19;57.22;101269.06;4881605;29;20033;-78
2022/06/19 07:04:24;;;;;;;12.30;1.80;;;;;;;16.96;57.92;101251.06;4880465;29;20485;-80
2022/06/19 07:06:49;;;;;;;10.10;1.98;;;;;;;16.86;59.62;101259.66;4864311;29;20039;-81
2022/06/19 07:09:15;;;;;;;9.82;1.90;;;;;;;16.94;60.40;101252.97;4881240;29;20040;-79
2022/06/19 07:11:42;;;;;;;9.18;1.98;;;;;;;16.98;59.98;101260.41;4880972;29;20371;-80
2022/06/19 07:14:08;;;;;;;15.48;2.55;;;;;;;16.67;59.83;101249.03;4881118;29;20029;-81
2022/06/19 07:16:37;;;;;;;11.55;1.80;;;;;;;15.59;60.90;101071.06;4877018;24;20452;-82
2022/06/19 07:19:14;;;;;;;11.25;2.25;;;;;;;16.42;61.42;101195.50;4862415;29;20034;-81
2022/06/19 07:21:43;;;;;;;11.10;2.28;;;;;;;15.59;62.77;101088.47;4862314;29;20030;-82
2022/06/19 07:24:08;;;;;;;7.95;1.40;;;;;;;16.59;61.56;101287.94;4862360;29;20081;-80
2022/06/19 07:26:52;;;;;;;10.18;2.08;;;;;;;16.09;62.92;101232.06;4860748;29;20435;-80
2022/06/19 07:29:17;;;;;;;7.80;1.48;;;;;;;16.72;63.16;101329.56;4862234;29;20032;-80
2022/06/19 07:31:43;;;;;;;12.20;2.17;;;;;;;16.45;63.76;101303.88;4862439;29;20124;-81
2022/06/19 07:34:08;;;;;;;13.20;2.40;;;;;;;16.23;65.69;101263.91;4862168;29;20100;-77
2022/06/19 07:36:34;;;;;;;11.20;2.55;;;;;;;15.83;67.36;101228.91;4862262;29;20041;-81
2022/06/19 07:39:00;;;;;;;10.85;2.38;;;;;;;15.00;68.96;101159.81;4861973;29;20030;-80
2022/06/19 07:41:25;;;;;;;12.77;2.53;;;;;;;14.99;72.19;101198.97;4862283;29;20034;-78
2022/06/19 07:43:51;;;;;;;12.20;2.10;;;;;;;14.79;72.72;101158.84;4862188;29;20035;-78
2022/06/19 07:46:18;;;;;;;10.48;2.45;;;;;;;14.63;75.05;101107.19;4861966;29;20478;-76
2022/06/19 07:51:28;;;;;;;10.85;2.63;;;;;;;14.29;78.37;101085.47;4862118;29;20409;-79
2022/06/19 07:53:53;;;;;;;12.13;2.50;;;;;;;14.06;79.60;101106.19;4861877;29;20026;-82
2022/06/19 07:56:19;;;;;;;13.30;2.90;;;;;;;13.64;81.83;101065.16;4860339;29;20081;-78
2022/06/19 07:58:44;;;;;;;15.88;3.00;;;;;;;13.74;82.49;101092.09;4861749;29;20041;-78
2022/06/19 08:01:09;;;;;;;14.98;3.03;;;;;;;13.79;83.79;101110.78;4861770;29;20060;-78
2022/06/19 08:03:35;;;;;;;17.75;3.40;;;;;;;13.58;84.62;101131.31;4861589;29;20034;-79
2022/06/19 08:06:01;;;;;;;14.13;2.92;;;;;;;14.17;83.87;101200.69;4861757;29;20033;-77
2022/06/19 08:08:28;;;;;;;12.82;2.90;;;;;;;14.67;82.91;101250.75;4861590;29;20033;-78
2022/06/19 08:10:56;;;;;;;15.40;2.70;;;;;;;14.92;81.17;101224.59;4861936;29;20029;-79
2022/06/19 08:13:23;;;;;;;14.25;3.40;;;;;;;15.05;78.04;101208.91;4861708;29;20026;-79
2022/06/19 08:15:51;;;;;;;12.85;2.90;;;;;;;15.15;79.83;101183.84;4861279;29;20064;-79
2022/06/19 08:18:17;;;;;;;14.40;2.58;;;;;;;15.29;78.15;101195.78;4861460;29;20443;-78
2022/06/19 08:20:42;;;;;;;16.67;2.88;;;;;;;15.35;78.72;101198.75;4860017;29;20037;-80
2022/06/19 08:23:08;;;;;;;12.55;2.75;;;;;;;15.13;78.04;101163.13;4860840;29;20037;-80
2022/06/19 08:25:34;;;;;;;15.20;2.85;;;;;;;15.16;79.95;101172.50;4861049;29;20053;-80
2022/06/19 08:28:00;;;;;;;13.57;3.78;;;;;;;15.08;81.99;101224.28;4844800;29;20030;-80
2022/06/19 08:30:29;;;;;;;15.88;3.13;;;;;;;15.10;80.46;101214.56;4861326;29;20108;-79
2022/06/19 08:32:55;;;;;;;13.88;3.35;;;;;;;15.23;81.77;101181.47;4861355;29;20376;-80
2022/06/19 08:35:21;;;;;;;16.23;3.95;;;;;;;15.43;80.48;101172.94;4861052;29;20093;-80
2022/06/19 08:37:53;;;;;;;13.65;2.78;;;;;;;15.82;80.74;101188.19;4860848;29;20109;-81
2022/06/19 08:40:56;;;;;;;19.27;3.42;;;;;;;15.92;80.26;101187.34;4860834;29;20030;-81
2022/06/19 08:43:30;;;;;;;14.15;3.72;;;;;;;15.95;79.74;101144.63;4859612;29;20461;-82
2022/06/19 08:46:39;;;;;;;18.10;3.70;;;;;;;16.10;79.46;101137.31;4860920;29;20021;-79
2022/06/19 08:49:32;;;;;;;16.67;3.67;;;;;;;15.97;78.86;101120.09;4859673;29;20066;-78
2022/06/19 08:52:39;;;;;;;12.98;3.63;;;;;;;15.74;78.84;101095.91;4859883;29;20041;-80
2022/06/19 08:55:32;;;;;;;14.05;3.30;;;;;;;15.23;80.94;101102.59;4858438;29;20053;-80
2022/06/19 08:58:19;;;;;;;16.73;3.83;;;;;;;14.75;80.07;101069.03;4843453;29;20037;-79
2022/06/19 09:00:52;;;;;;;13.52;3.20;;;;;;;14.77;77.84;101031.59;4842824;29;20041;-82
2022/06/19 09:03:29;;;;;;;14.68;3.58;;;;;;;14.93;78.72;101044.22;4858599;29;20097;-83
2022/06/19 09:06:25;;;;;;;15.35;4.00;;;;;;;15.18;80.43;101038.75;4858219;29;20124;-83
2022/06/19 09:09:17;;;;;;;16.05;3.95;;;;;;;15.95;82.39;101079.50;4842767;29;20061;-83
2022/06/19 09:23:46;;;;;;;12.88;2.92;;;;;;;17.93;69.98;101146.06;5227133;23;20056;-83
2022/06/19 09:29:34;;;;;;;14.75;3.53;;;;;;;17.42;67.67;101128.75;4897757;29;20051;-78
2022/06/19 09:32:08;;;;;;;15.35;3.33;;;;;;;16.86;66.75;101047.53;4893691;29;20023;-80
2022/06/19 09:34:55;;;;;;;10.05;2.75;;;;;;;17.52;64.76;101133.19;4878607;29;20029;-82
2022/06/19 09:37:35;;;;;;;13.77;2.80;;;;;;;17.13;63.90;101073.03;4862160;29;20491;-79
2022/06/19 09:40:24;;;;;;;13.98;2.92;;;;;;;18.29;64.37;101198.66;4878839;29;20073;-79
2022/06/19 09:42:56;;;;;;;11.60;2.60;;;;;;;18.70;62.01;101189.69;4878489;29;20397;-79
2022/06/19 09:45:42;;;;;;;13.10;3.13;;;;;;;19.13;63.04;101185.72;4879145;29;20088;-81
2022/06/19 09:48:21;;;;;;;8.43;2.20;;;;;;;19.80;61.49;101171.50;4878756;29;20381;-79
2022/06/19 09:50:55;;;;;;;9.15;1.85;;;;;;;19.90;56.06;101143.41;4878793;29;20153;-80
2022/06/19 09:53:44;;;;;;;10.73;2.45;;;;;;;19.99;56.76;101150.38;4862012;29;20033;-79
2022/06/19 09:56:27;;;;;;;11.73;2.30;;;;;;;19.58;55.52;101101.19;4861929;29;20442;-80
2022/06/19 09:59:00;;;;;;;12.05;2.45;;;;;;;19.91;55.82;101137.19;4878822;29;20029;-79
2022/06/19 10:01:27;;;;;;;10.95;3.00;;;;;;;19.86;56.29;101138.59;4878582;29;20029;-83
2022/06/19 10:04:04;;;;;;;10.43;2.30;;;;;;;19.72;57.79;101124.22;4878429;29;20111;-81
2022/06/19 10:06:51;;;;;;;12.52;2.67;;;;;;;19.80;57.17;101121.69;4878722;29;20025;-80
2022/06/19 10:09:27;;;;;;;11.68;2.40;;;;;;;19.65;58.43;101071.59;4862028;29;20029;-80
2022/06/19 10:11:56;;;;;;;11.00;3.03;;;;;;;19.48;54.90;101101.22;4878591;29;20107;-81
2022/06/19 10:14:31;;;;;;;9.40;2.40;;;;;;;19.45;58.13;101099.69;4878357;29;20026;-81
2022/06/19 10:17:11;;;;;;;10.98;1.90;;;;;;;19.97;59.70;101088.59;4878485;29;20389;-80
2022/06/19 10:19:45;;;;;;;8.85;2.25;;;;;;;19.92;53.79;101054.13;4878507;29;20029;-81
2022/06/19 10:22:26;;;;;;;11.32;2.45;;;;;;;19.85;52.65;101080.13;4861616;29;20401;-81
2022/06/19 10:25:20;;;;;;;8.95;2.08;;;;;;;19.48;54.37;101049.63;4878201;29;20037;-80
2022/06/19 10:28:07;;;;;;;8.35;1.88;;;;;;;19.66;56.11;101068.00;4877645;29;20033;-80
2022/06/19 10:31:16;;;;;;;8.27;1.95;;;;;;;19.67;56.38;101069.66;4878273;29;20037;-81
2022/06/19 10:33:58;;;;;;;9.25;2.17;;;;;;;19.35;55.29;101037.88;4861267;29;20045;-79
2022/06/19 10:36:34;;;;;;;10.40;2.22;;;;;;;19.47;57.63;101065.50;4879280;29;20039;-79
2022/06/19 10:39:18;;;;;;;8.82;2.10;;;;;;;19.46;58.22;101048.13;4880507;29;20029;-80
2022/06/19 10:42:05;;;;;;;9.18;2.38;;;;;;;19.68;55.35;101080.97;4881301;29;20029;-81
2022/06/19 10:44:34;;;;;;;8.13;1.98;;;;;;;19.91;56.18;101086.56;4864884;29;20029;-81
2022/06/19 10:47:02;;;;;;;8.90;2.20;;;;;;;20.11;54.78;101074.94;4881542;29;20033;-81
2022/06/19 10:49:41;;;;;;;10.48;2.05;;;;;;;20.04;54.98;101035.38;4865001;29;20040;-81
2022/06/19 10:52:23;;;;;;;7.55;1.90;;;;;;;20.32;55.38;101041.31;4881279;29;20037;-83
2022/06/19 10:55:16;;;;;;;7.00;1.67;;;;;;;20.83;56.58;101073.75;4881094;29;20371;-86
2022/06/19 10:57:54;;;;;;;9.05;2.10;;;;;;;20.97;53.04;101084.66;4881131;29;20557;-82
2022/06/19 11:00:19;;;;;;;7.70;2.00;;;;;;;20.67;51.81;101057.94;4881396;29;20099;-84
2022/06/19 11:05:59;;;;;;;8.82;1.73;;;;;;;20.86;52.24;101091.84;4881429;29;20044;-85
2022/06/19 11:08:29;;;;;;;5.93;1.90;;;;;;;20.89;47.79;101078.38;4881532;29;20041;-83
2022/06/19 11:11:00;;;;;;;7.10;1.60;;;;;;;20.88;46.92;101095.13;4849421;29;20119;-85
2022/06/19 11:13:55;;;;;;;7.03;1.90;;;;;;;21.21;47.67;101129.38;4880991;29;20029;-79
2022/06/19 11:16:21;;;;;;;10.88;2.33;;;;;;;21.06;47.50;101134.44;4880906;29;20064;-82
2022/06/19 11:18:49;;;;;;;7.50;1.80;;;;;;;21.10;49.27;101127.03;4864508;29;20120;-80
2022/06/19 11:21:21;;;;;;;7.45;1.55;;;;;;;20.91;50.09;101092.19;4881277;29;20029;-81
2022/06/19 11:23:46;;;;;;;6.22;1.80;;;;;;;21.09;48.07;101144.59;4880904;29;20061;-82
2022/06/19 11:26:14;;;;;;;15.45;2.20;;;;;;;21.10;48.39;101151.50;4880655;29;20029;-81
2022/06/19 11:28:47;;;;;;;7.07;1.98;;;;;;;20.99;48.68;101137.84;4881173;29;20112;-78
2022/06/19 11:35:06;;;;;;;;;;;;;;;21.80;47.00;101168.84;4862986;29;20418;-78
2022/06/19 11:37:39;;;;;;;10.30;2.40;;;;;;;20.33;49.49;100987.88;4862228;29;19927;-79
2022/06/19 11:40:04;;;;;;;10.82;2.90;;;;;;;21.29;48.22;101171.50;4861889;29;20177;-79
2022/06/19 11:42:51;;;;;;;9.50;2.45;;;;;;;21.17;50.18;101104.44;4861991;29;20518;-83
2022/06/19 11:45:47;;;;;;;9.10;3.42;;;;;;;21.99;49.94;101179.88;4862129;29;20562;-78
2022/06/19 11:48:42;;;;;;;12.18;3.13;;;;;;;21.91;49.87;101108.88;4860605;29;20093;-83
2022/06/19 11:51:32;;;;;;;9.48;2.97;;;;;;;22.50;49.08;101162.16;4861377;29;20128;-81
2022/06/19 11:54:13;;;;;;;7.60;2.88;;;;;;;21.72;49.13;100999.59;4862009;29;20531;-85
2022/06/19 12:00:19;;;;;;;6.50;2.33;;;;;;;22.27;47.85;101027.84;4861861;29;20069;-85
2022/06/19 12:03:09;;;;;;;7.93;2.70;;;;;;;22.72;49.04;101097.50;4861414;29;20037;-83
2022/06/19 12:06:26;;;;;;;9.70;3.10;;;;;;;22.90;48.38;101182.38;4833237;29;20486;-82